sensor_id;sensor_type;location;lat;lon;timestamp;temperature;humidity
26272;DHT22;13997;48.902;12.472;2022-08-19T21:46:58;512.20;2380.80
26272;DHT22;13997;48.902;12.472;2022-08-19T21:49:24;512.30;2380.80
26272;DHT22;13997;48.902;12.472;2022-08-19T21:51:49;512.20;2380.80
26272;DHT22;13997;48.902;12.472;2022-08-19T21:54:15;512.20;2380.80
26272;DHT22;13997;48.902;12.472;2022-08-19T21:56:41;512.20;2380.80
26272;DHT22;13997;48.902;12.472;2022-08-19T21:59:06;512.10;2380.80
26272;DHT22;13997;48.902;12.472;2022-08-19T22:01:33;512.10;2380.80
26272;DHT22;13997;48.902;12.472;2022-08-19T22:03:58;512.10;2380.80
26272;DHT22;13997;48.902;12.472;2022-08-19T22:06:24;512.10;2380.80
26272;DHT22;13997;48.902;12.472;2022-08-19T22:08:51;512.10;2380.80
26272;DHT22;13997;48.902;12.472;2022-08-19T22:11:23;512.10;2380.80
26272;DHT22;13997;48.902;12.472;2022-08-19T22:13:49;512.10;2380.80
26272;DHT22;13997;48.902;12.472;2022-08-19T22:16:19;512.10;2380.80
26272;DHT22;13997;48.902;12.472;2022-08-19T22:18:44;512.10;2380.80
26272;DHT22;13997;48.902;12.472;2022-08-19T22:21:10;512.00;2380.80
26272;DHT22;13997;48.902;12.472;2022-08-19T22:23:36;512.00;2380.80
26272;DHT22;13997;48.902;12.472;2022-08-19T22:26:01;512.00;2380.80
26272;DHT22;13997;48.902;12.472;2022-08-19T22:28:27;512.00;2380.80
26272;DHT22;13997;48.902;12.472;2022-08-19T22:30:53;512.00;2380.80
26272;DHT22;13997;48.902;12.472;2022-08-19T22:33:19;512.00;2380.80
26272;DHT22;13997;48.902;12.472;2022-08-19T22:35:47;512.00;2380.80
26272;DHT22;13997;48.902;12.472;2022-08-19T22:38:14;512.00;2380.80
26272;DHT22;13997;48.902;12.472;2022-08-19T22:40:44;512.00;2380.80
26272;DHT22;13997;48.902;12.472;2022-08-19T22:43:19;512.00;2380.80
26272;DHT22;13997;48.902;12.472;2022-08-19T22:45:46;512.00;2380.80
26272;DHT22;13997;48.902;12.472;2022-08-19T22:48:14;487.30;2380.80
26272;DHT22;13997;48.902;12.472;2022-08-19T22:50:41;487.30;2380.80
26272;DHT22;13997;48.902;12.472;2022-08-19T22:53:09;487.30;2380.80
26272;DHT22;13997;48.902;12.472;2022-08-19T22:55:36;487.30;2380.80
26272;DHT22;13997;48.902;12.472;2022-08-19T22:58:02;487.30;2380.80
26272;DHT22;13997;48.902;12.472;2022-08-19T23:00:28;487.30;2380.80
26272;DHT22;13997;48.902;12.472;2022-08-19T23:02:55;487.30;2380.80
26272;DHT22;13997;48.902;12.472;2022-08-19T23:05:24;487.20;2380.80
26272;DHT22;13997;48.902;12.472;2022-08-19T23:07:50;487.20;2380.80
26272;DHT22;13997;48.902;12.472;2022-08-19T23:10:16;487.20;2380.80
26272;DHT22;13997;48.902;12.472;2022-08-19T23:12:46;487.20;2380.80
26272;DHT22;13997;48.902;12.472;2022-08-19T23:15:22;487.20;2380.80
26272;DHT22;13997;48.902;12.472;2022-08-19T23:17:51;487.10;2380.80
26272;DHT22;13997;48.902;12.472;2022-08-19T23:20:17;487.00;2380.80
26272;DHT22;13997;48.902;12.472;2022-08-19T23:25:16;486.90;2380.80
26272;DHT22;13997;48.902;12.472;2022-08-19T23:30:28;486.70;2380.80
26272;DHT22;13997;48.902;12.472;2022-08-19T23:32:59;486.60;2380.80
26272;DHT22;13997;48.902;12.472;2022-08-19T23:35:29;486.50;2380.80
26272;DHT22;13997;48.902;12.472;2022-08-19T23:37:57;486.50;2380.80
26272;DHT22;13997;48.902;12.472;2022-08-19T23:40:22;486.40;2380.80
26272;DHT22;13997;48.902;12.472;2022-08-19T23:42:49;461.70;2380.80
26272;DHT22;13997;48.902;12.472;2022-08-19T23:45:16;461.70;2380.80
26272;DHT22;13997;48.902;12.472;2022-08-19T23:47:42;461.60;2380.80
26272;DHT22;13997;48.902;12.472;2022-08-19T23:50:10;461.60;2380.80
26272;DHT22;13997;48.902;12.472;2022-08-19T23:52:45;461.70;2380.80
26272;DHT22;13997;48.902;12.472;2022-08-19T23:55:11;461.60;2380.80
26272;DHT22;13997;48.902;12.472;2022-08-19T23:57:36;461.60;2380.80
